createdAt,value
2022-10-10T00:02:39.443Z,100.00
2022-10-10T00:05:24.851Z,100.00
2022-10-10T00:08:11.191Z,100.00
2022-10-10T00:10:56.811Z,100.00
2022-10-10T00:13:43.182Z,100.00
2022-10-10T00:16:28.597Z,100.00
2022-10-10T00:19:14.652Z,100.00
2022-10-10T00:22:00.094Z,100.00
2022-10-10T00:24:45.595Z,100.00
2022-10-10T00:27:31.095Z,100.00
2022-10-10T00:30:16.560Z,100.00
2022-10-10T00:33:02.287Z,100.00
2022-10-10T00:35:49.489Z,100.00
2022-10-10T00:38:35.033Z,100.00
2022-10-10T00:41:22.378Z,100.00
2022-10-10T00:44:13.959Z,100.00
2022-10-10T00:46:59.461Z,100.00
2022-10-10T00:49:44.931Z,100.00
2022-10-10T00:52:30.357Z,100.00
2022-10-10T00:55:17.068Z,100.00
2022-10-10T00:58:05.288Z,100.00
2022-10-10T01:00:52.071Z,100.00
2022-10-10T01:03:37.695Z,100.00
2022-10-10T01:06:23.396Z,100.00
2022-10-10T01:09:08.828Z,100.00
2022-10-10T01:12:24.560Z,100.00
2022-10-10T01:15:33.732Z,100.00
2022-10-10T01:18:22.385Z,100.00
2022-10-10T01:21:17.528Z,100.00
2022-10-10T01:24:12.029Z,100.00
2022-10-10T01:27:08.017Z,100.00
2022-10-10T01:29:58.115Z,100.00
2022-10-10T01:32:51.300Z,100.00
2022-10-10T01:35:55.826Z,100.00
2022-10-10T01:38:55.821Z,100.00
2022-10-10T01:41:54.569Z,100.00
2022-10-10T01:44:44.797Z,100.00
2022-10-10T01:47:30.518Z,100.00
2022-10-10T01:50:20.257Z,100.00
2022-10-10T01:53:22.648Z,100.00
2022-10-10T01:56:17.484Z,100.00
2022-10-10T01:59:24.740Z,100.00
2022-10-10T02:02:33.936Z,100.00
2022-10-10T02:05:47.403Z,100.00
2022-10-10T02:08:41.324Z,100.00
2022-10-10T02:11:31.362Z,100.00
2022-10-10T02:14:27.618Z,100.00
2022-10-10T02:17:15.777Z,100.00
2022-10-10T02:20:01.308Z,100.00
2022-10-10T02:22:48.665Z,100.00
2022-10-10T02:25:40.132Z,100.00
2022-10-10T02:28:25.569Z,100.00
2022-10-10T02:31:16.992Z,100.00
2022-10-10T02:34:11.957Z,100.00
2022-10-10T02:37:02.890Z,100.00
2022-10-10T02:39:52.151Z,100.00
2022-10-10T02:42:40.181Z,100.00
2022-10-10T02:45:26.516Z,100.00
2022-10-10T02:48:11.905Z,100.00
2022-10-10T02:50:57.678Z,100.00
2022-10-10T02:53:43.185Z,100.00
2022-10-10T02:56:28.662Z,100.00
2022-10-10T02:59:14.040Z,100.00
2022-10-10T03:01:59.612Z,100.00
2022-10-10T03:04:44.959Z,100.00
2022-10-10T03:07:30.591Z,100.00
2022-10-10T03:10:16.328Z,100.00
2022-10-10T03:13:01.606Z,100.00
2022-10-10T03:15:47.032Z,100.00
2022-10-10T03:18:32.708Z,100.00
2022-10-10T03:21:18.521Z,100.00
2022-10-10T03:24:05.499Z,100.00
2022-10-10T03:26:50.904Z,100.00
2022-10-10T03:29:36.387Z,100.00
2022-10-10T03:32:21.818Z,100.00
2022-10-10T03:35:07.603Z,100.00
2022-10-10T03:37:53.039Z,100.00
2022-10-10T03:40:43.324Z,100.00
2022-10-10T03:43:28.790Z,100.00
2022-10-10T03:46:16.482Z,100.00
2022-10-10T03:49:02.169Z,100.00
2022-10-10T03:51:47.646Z,100.00
2022-10-10T03:54:32.953Z,100.00
2022-10-10T03:57:18.200Z,100.00
2022-10-10T04:00:04.616Z,100.00
2022-10-10T04:02:50.675Z,100.00
2022-10-10T04:05:37.959Z,100.00
2022-10-10T04:08:24.887Z,100.00
2022-10-10T04:11:10.569Z,100.00
2022-10-10T04:13:55.853Z,100.00
2022-10-10T04:16:41.239Z,100.00
2022-10-10T04:19:26.513Z,100.00
2022-10-10T04:22:12.459Z,100.00
2022-10-10T04:24:57.721Z,100.00
2022-10-10T04:27:44.141Z,100.00
2022-10-10T04:30:33.885Z,100.00
2022-10-10T04:33:19.540Z,100.00
2022-10-10T04:36:05.369Z,100.00
2022-10-10T04:38:50.809Z,100.00
2022-10-10T04:41:36.130Z,100.00
2022-10-10T04:44:21.461Z,100.00
2022-10-10T04:47:07.320Z,100.00
2022-10-10T04:49:52.673Z,100.00
2022-10-10T04:52:38.056Z,100.00
2022-10-10T04:55:23.494Z,100.00
2022-10-10T04:58:09.251Z,100.00
2022-10-10T05:00:55.603Z,100.00
2022-10-10T05:03:40.963Z,100.00
2022-10-10T05:06:26.273Z,100.00
2022-10-10T05:09:11.838Z,100.00
2022-10-10T05:11:57.387Z,100.00
2022-10-10T05:14:47.821Z,100.00
2022-10-10T05:17:33.645Z,100.00
2022-10-10T05:20:19.778Z,100.00
2022-10-10T05:23:05.273Z,100.00
2022-10-10T05:25:51.558Z,100.00
2022-10-10T05:28:37.566Z,100.00
2022-10-10T05:31:23.027Z,100.00
2022-10-10T05:34:13.052Z,100.00
2022-10-10T05:36:58.721Z,100.00
2022-10-10T05:39:44.470Z,100.00
2022-10-10T05:42:29.863Z,100.00
2022-10-10T05:45:15.343Z,100.00
2022-10-10T05:48:01.011Z,100.00
2022-10-10T05:50:49.286Z,100.00
2022-10-10T05:53:34.747Z,100.00
2022-10-10T05:56:20.021Z,100.00
2022-10-10T05:59:05.565Z,100.00
2022-10-10T06:01:51.209Z,100.00
2022-10-10T06:04:36.733Z,100.00
2022-10-10T06:07:22.459Z,100.00
2022-10-10T06:10:08.834Z,100.00
2022-10-10T06:12:54.520Z,100.00
2022-10-10T06:15:40.511Z,100.00
2022-10-10T06:18:26.517Z,100.00
2022-10-10T06:21:12.753Z,100.00
2022-10-10T06:23:58.097Z,100.00
2022-10-10T06:26:43.586Z,100.00
2022-10-10T06:29:29.100Z,100.00
2022-10-10T06:32:14.540Z,100.00
2022-10-10T06:35:00.347Z,100.00
2022-10-10T06:37:45.919Z,100.00
2022-10-10T06:40:31.388Z,100.00
2022-10-10T06:43:17.839Z,100.00
2022-10-10T06:46:03.637Z,100.00
2022-10-10T06:48:49.227Z,100.00
2022-10-10T06:51:35.003Z,100.00
2022-10-10T06:54:20.743Z,100.00
2022-10-10T06:57:06.095Z,100.00
2022-10-10T06:59:51.403Z,100.00
2022-10-10T07:02:40.785Z,100.00
2022-10-10T07:05:25.991Z,100.00
2022-10-10T07:08:11.269Z,100.00
2022-10-10T07:10:57.271Z,100.00
2022-10-10T07:13:42.557Z,100.00
2022-10-10T07:16:28.188Z,100.00
2022-10-10T07:19:14.036Z,100.00
2022-10-10T07:21:59.382Z,100.00
2022-10-10T07:24:45.348Z,100.00
2022-10-10T07:27:31.042Z,100.00
2022-10-10T07:30:16.831Z,100.00
2022-10-10T07:33:02.303Z,100.00
2022-10-10T07:35:54.275Z,100.00
2022-10-10T07:38:40.181Z,100.00
2022-10-10T07:41:25.582Z,100.00
2022-10-10T07:44:11.013Z,100.00
2022-10-10T07:46:56.423Z,100.00
2022-10-10T07:49:41.936Z,100.00
2022-10-10T07:52:27.293Z,100.00
2022-10-10T07:55:12.795Z,100.00
2022-10-10T07:57:59.939Z,100.00
2022-10-10T08:00:45.312Z,100.00
2022-10-10T08:03:30.762Z,100.00
2022-10-10T08:06:18.267Z,100.00
2022-10-10T08:09:03.945Z,100.00
2022-10-10T08:11:49.643Z,100.00
2022-10-10T08:14:34.775Z,100.00
2022-10-10T08:17:20.337Z,100.00
2022-10-10T08:20:06.322Z,100.00
2022-10-10T08:22:52.131Z,100.00
2022-10-10T08:25:37.853Z,100.00
2022-10-10T08:28:24.112Z,100.00
2022-10-10T08:31:13.067Z,100.00
2022-10-10T08:33:58.397Z,100.00
2022-10-10T08:36:43.759Z,100.00
2022-10-10T08:39:29.207Z,100.00
2022-10-10T08:42:30.642Z,100.00
2022-10-10T08:45:23.923Z,100.00
2022-10-10T08:48:16.612Z,100.00
2022-10-10T08:51:11.417Z,100.00
2022-10-10T08:54:01.706Z,100.00
2022-10-10T08:56:47.733Z,100.00
2022-10-10T08:59:40.691Z,100.00
2022-10-10T09:02:55.367Z,100.00
2022-10-10T09:05:40.950Z,100.00
2022-10-10T09:08:27.018Z,100.00
2022-10-10T09:11:41.917Z,100.00
2022-10-10T09:15:02.067Z,100.00
2022-10-10T09:18:13.085Z,100.00
2022-10-10T09:21:23.325Z,100.00
2022-10-10T09:24:25.090Z,100.00
2022-10-10T09:27:19.214Z,100.00
2022-10-10T09:30:14.106Z,100.00
2022-10-10T09:33:07.666Z,100.00
2022-10-10T09:35:55.136Z,100.00
2022-10-10T09:38:55.568Z,100.00
2022-10-10T09:41:52.626Z,100.00
2022-10-10T09:44:39.982Z,100.00
2022-10-10T09:47:25.512Z,100.00
2022-10-10T09:50:15.626Z,100.00
2022-10-10T09:53:00.975Z,100.00
2022-10-10T09:55:48.508Z,100.00
2022-10-10T09:58:38.166Z,100.00
2022-10-10T10:01:32.838Z,100.00
2022-10-10T10:04:28.826Z,100.00
2022-10-10T10:07:36.243Z,100.00
2022-10-10T10:10:25.512Z,100.00
2022-10-10T10:13:19.574Z,100.00
2022-10-10T10:16:15.027Z,100.00
2022-10-10T10:19:01.299Z,100.00
2022-10-10T10:21:51.905Z,100.00
2022-10-10T10:24:37.726Z,100.00
2022-10-10T10:27:26.186Z,100.00
2022-10-10T10:30:24.900Z,100.00
2022-10-10T10:33:21.996Z,100.00
2022-10-10T10:36:10.584Z,100.00
2022-10-10T10:39:53.890Z,100.00
2022-10-10T10:42:48.640Z,100.00
2022-10-10T10:45:58.552Z,100.00
2022-10-10T10:48:49.896Z,100.00
2022-10-10T10:52:09.565Z,100.00
2022-10-10T10:55:12.092Z,100.00
2022-10-10T11:01:56.816Z,100.00
2022-10-10T11:05:18.390Z,100.00
2022-10-10T11:08:23.276Z,100.00
2022-10-10T11:11:30.651Z,100.00
2022-10-10T11:15:05.055Z,100.00
2022-10-10T11:18:01.459Z,100.00
2022-10-10T11:20:53.015Z,100.00
2022-10-10T11:23:54.982Z,100.00
2022-10-10T11:26:45.665Z,100.00
2022-10-10T11:29:48.299Z,100.00
2022-10-10T11:32:37.966Z,100.00
2022-10-10T11:35:34.598Z,100.00
2022-10-10T11:38:38.650Z,100.00
2022-10-10T11:41:33.499Z,100.00
2022-10-10T11:44:25.539Z,100.00
2022-10-10T11:47:22.595Z,100.00
2022-10-10T11:50:18.328Z,100.00
2022-10-10T11:53:31.028Z,100.00
2022-10-10T11:56:40.204Z,100.00
2022-10-10T11:59:35.241Z,100.00
2022-10-10T12:02:42.516Z,100.00
2022-10-10T12:05:31.180Z,100.00
2022-10-10T12:08:24.995Z,100.00
2022-10-10T12:11:16.562Z,100.00
2022-10-10T12:14:06.799Z,100.00
2022-10-10T12:16:53.577Z,100.00
2022-10-10T12:19:38.958Z,100.00
2022-10-10T12:22:30.710Z,100.00
2022-10-10T12:25:36.280Z,100.00
2022-10-10T12:28:34.243Z,100.00
2022-10-10T12:31:28.293Z,100.00
2022-10-10T12:34:35.269Z,100.00
2022-10-10T12:37:28.358Z,100.00
2022-10-10T12:40:13.562Z,100.00
2022-10-10T12:43:36.606Z,100.00
2022-10-10T12:46:28.833Z,100.00
2022-10-10T12:49:17.399Z,100.00
2022-10-10T12:52:11.882Z,100.00
2022-10-10T12:55:07.122Z,100.00
2022-10-10T12:58:28.034Z,100.00
2022-10-10T13:01:29.000Z,100.00
2022-10-10T13:04:19.303Z,100.00
2022-10-10T13:07:05.102Z,100.00
2022-10-10T13:09:53.173Z,99.65
2022-10-10T13:12:38.834Z,98.72
2022-10-10T13:15:24.275Z,100.00
2022-10-10T13:18:09.760Z,99.14
2022-10-10T13:20:56.250Z,98.58
2022-10-10T13:23:44.588Z,94.42
2022-10-10T13:26:50.947Z,92.56
2022-10-10T13:29:37.022Z,95.38
2022-10-10T13:32:29.067Z,97.00
2022-10-10T13:35:20.139Z,95.08
2022-10-10T13:38:06.476Z,94.42
2022-10-10T13:40:52.273Z,91.20
2022-10-10T13:43:40.897Z,91.42
2022-10-10T13:46:32.685Z,90.83
2022-10-10T13:49:30.143Z,90.73
2022-10-10T13:52:24.020Z,91.85
2022-10-10T13:55:26.830Z,93.08
2022-10-10T13:58:15.305Z,92.98
2022-10-10T14:01:03.161Z,89.93
2022-10-10T14:03:52.056Z,90.78
2022-10-10T14:06:37.595Z,92.08
2022-10-10T14:09:29.004Z,93.39
2022-10-10T14:12:35.026Z,93.20
2022-10-10T14:15:31.074Z,95.30
2022-10-10T14:18:17.898Z,91.80
2022-10-10T14:21:04.165Z,93.88
2022-10-10T14:23:49.657Z,92.09
2022-10-10T14:26:35.896Z,95.20
2022-10-10T14:29:21.896Z,93.98
2022-10-10T14:32:08.816Z,93.97
2022-10-10T14:34:54.382Z,93.74
2022-10-10T14:37:39.753Z,93.14
2022-10-10T14:40:29.468Z,91.73
2022-10-10T14:43:16.958Z,93.88
2022-10-10T14:46:02.532Z,91.92
2022-10-10T14:48:48.177Z,92.12
2022-10-10T14:51:38.566Z,92.22
2022-10-10T14:54:23.894Z,88.81
2022-10-10T14:57:12.659Z,91.14
2022-10-10T14:59:58.079Z,89.27
2022-10-10T15:02:45.771Z,90.79
2022-10-10T15:05:31.737Z,92.17
2022-10-10T15:08:19.308Z,93.73
2022-10-10T15:11:05.333Z,94.92
2022-10-10T15:13:50.774Z,95.20
2022-10-10T15:16:36.321Z,94.46
2022-10-10T15:19:21.472Z,93.81
2022-10-10T15:22:07.097Z,95.10
2022-10-10T15:24:52.508Z,95.58
2022-10-10T15:27:38.640Z,97.68
2022-10-10T15:30:25.088Z,95.15
2022-10-10T15:33:10.916Z,96.87
2022-10-10T15:36:09.497Z,93.84
2022-10-10T15:38:55.615Z,91.84
2022-10-10T15:41:41.262Z,90.30
2022-10-10T15:44:27.111Z,87.45
2022-10-10T15:47:13.979Z,89.34
2022-10-10T15:49:59.642Z,84.92
2022-10-10T15:52:45.229Z,84.41
2022-10-10T15:55:30.623Z,83.81
2022-10-10T15:58:16.599Z,87.27
2022-10-10T16:01:13.081Z,87.63
2022-10-10T16:03:58.912Z,89.28
2022-10-10T16:06:53.932Z,91.61
2022-10-10T16:09:45.188Z,94.17
2022-10-10T16:12:30.840Z,95.08
2022-10-10T16:15:16.441Z,95.40
2022-10-10T16:18:02.381Z,96.16
2022-10-10T16:20:48.691Z,99.86
2022-10-10T16:23:34.057Z,99.10
2022-10-10T16:26:26.785Z,99.22
2022-10-10T16:29:12.958Z,99.73
2022-10-10T16:31:58.528Z,99.59
2022-10-10T16:34:44.054Z,97.07
2022-10-10T16:37:29.443Z,99.21
2022-10-10T16:40:14.808Z,98.64
2022-10-10T16:43:00.381Z,99.47
2022-10-10T16:45:46.373Z,98.25
2022-10-10T16:48:33.653Z,98.73
2022-10-10T16:51:21.239Z,97.66
2022-10-10T16:54:07.444Z,100.00
2022-10-10T16:56:52.826Z,100.00
2022-10-10T16:59:38.468Z,100.00
2022-10-10T17:02:25.172Z,100.00
2022-10-10T17:05:10.797Z,100.00
2022-10-10T17:07:56.244Z,100.00
2022-10-10T17:10:43.540Z,100.00
2022-10-10T17:13:31.328Z,100.00
2022-10-10T17:19:28.526Z,100.00
2022-10-10T17:22:14.295Z,100.00
2022-10-10T17:24:59.619Z,100.00
2022-10-10T17:27:44.873Z,100.00
2022-10-10T17:30:30.212Z,100.00
2022-10-10T17:33:17.892Z,100.00
2022-10-10T17:36:09.043Z,100.00
2022-10-10T17:39:00.383Z,100.00
2022-10-10T17:41:50.065Z,100.00
2022-10-10T17:44:42.008Z,100.00
2022-10-10T17:47:30.809Z,100.00
2022-10-10T17:50:16.535Z,100.00
2022-10-10T17:53:03.504Z,100.00
2022-10-10T17:55:49.502Z,100.00
2022-10-10T17:58:35.145Z,100.00
2022-10-10T18:01:21.482Z,100.00
2022-10-10T18:04:07.701Z,100.00
2022-10-10T18:06:53.101Z,100.00
2022-10-10T18:09:38.738Z,100.00
2022-10-10T18:12:24.207Z,100.00
2022-10-10T18:15:10.732Z,100.00
2022-10-10T18:17:56.394Z,100.00
2022-10-10T18:20:42.079Z,100.00
2022-10-10T18:23:28.231Z,100.00
2022-10-10T18:26:19.938Z,100.00
2022-10-10T18:29:05.347Z,100.00
2022-10-10T18:31:50.911Z,100.00
2022-10-10T18:34:36.298Z,100.00
2022-10-10T18:37:21.815Z,100.00
2022-10-10T18:40:07.988Z,100.00
2022-10-10T18:42:53.533Z,100.00
2022-10-10T18:45:39.265Z,100.00
2022-10-10T18:48:24.921Z,100.00
2022-10-10T18:51:14.326Z,100.00
2022-10-10T18:54:03.896Z,100.00
2022-10-10T18:56:49.316Z,100.00
2022-10-10T18:59:34.736Z,100.00
2022-10-10T19:02:20.247Z,100.00
2022-10-10T19:05:05.818Z,100.00
2022-10-10T19:07:51.487Z,100.00
2022-10-10T19:10:43.766Z,100.00
2022-10-10T19:13:29.691Z,100.00
2022-10-10T19:16:15.659Z,100.00
2022-10-10T19:19:01.893Z,100.00
2022-10-10T19:21:48.599Z,100.00
2022-10-10T19:24:34.398Z,100.00
2022-10-10T19:27:20.306Z,100.00
2022-10-10T19:30:06.024Z,100.00
2022-10-10T19:32:51.455Z,100.00
2022-10-10T19:35:41.767Z,100.00
2022-10-10T19:38:28.018Z,100.00
2022-10-10T19:41:14.548Z,100.00
2022-10-10T19:44:04.859Z,100.00
2022-10-10T19:46:50.608Z,100.00
2022-10-10T19:49:36.038Z,100.00
2022-10-10T19:52:22.363Z,100.00
2022-10-10T19:55:08.384Z,100.00
2022-10-10T19:57:53.735Z,100.00
2022-10-10T20:00:39.370Z,100.00
2022-10-10T20:03:25.477Z,100.00
2022-10-10T20:06:11.651Z,100.00
2022-10-10T20:08:57.389Z,100.00
2022-10-10T20:11:42.840Z,100.00
2022-10-10T20:14:28.405Z,100.00
2022-10-10T20:17:14.266Z,100.00
2022-10-10T20:20:00.084Z,100.00
2022-10-10T20:22:45.848Z,100.00
2022-10-10T20:25:31.502Z,100.00
2022-10-10T20:28:18.772Z,100.00
2022-10-10T20:31:04.581Z,100.00
2022-10-10T20:33:52.588Z,100.00
2022-10-10T20:36:39.297Z,100.00
2022-10-10T20:39:24.895Z,100.00
2022-10-10T20:42:10.419Z,100.00
2022-10-10T20:44:55.870Z,100.00
2022-10-10T20:47:41.211Z,100.00
2022-10-10T20:50:26.673Z,100.00
2022-10-10T20:53:12.309Z,100.00
2022-10-10T20:55:57.815Z,100.00
2022-10-10T20:58:43.149Z,100.00
2022-10-10T21:01:30.636Z,100.00
2022-10-10T21:04:16.905Z,100.00
2022-10-10T21:07:02.539Z,100.00
2022-10-10T21:09:48.317Z,100.00
2022-10-10T21:12:33.851Z,100.00
2022-10-10T21:15:19.268Z,100.00
2022-10-10T21:18:04.977Z,100.00
2022-10-10T21:20:50.576Z,100.00
2022-10-10T21:23:39.374Z,100.00
2022-10-10T21:26:28.458Z,100.00
2022-10-10T21:29:13.955Z,100.00
2022-10-10T21:31:59.730Z,100.00
2022-10-10T21:34:45.128Z,100.00
2022-10-10T21:37:32.325Z,100.00
2022-10-10T21:40:18.083Z,100.00
2022-10-10T21:43:04.630Z,100.00
2022-10-10T21:45:50.287Z,100.00
2022-10-10T21:48:36.168Z,100.00
2022-10-10T21:51:22.296Z,100.00
2022-10-10T21:54:08.654Z,100.00
2022-10-10T21:56:54.194Z,100.00
2022-10-10T21:59:39.923Z,100.00
2022-10-10T22:02:25.265Z,100.00
2022-10-10T22:05:13.902Z,100.00
2022-10-10T22:07:59.531Z,100.00
2022-10-10T22:10:45.561Z,100.00
2022-10-10T22:13:31.319Z,100.00
2022-10-10T22:16:17.901Z,100.00
2022-10-10T22:19:04.417Z,100.00
2022-10-10T22:21:50.008Z,100.00
2022-10-10T22:24:36.767Z,100.00
2022-10-10T22:27:22.349Z,100.00
2022-10-10T22:30:09.666Z,100.00
2022-10-10T22:32:54.987Z,100.00
2022-10-10T22:35:40.552Z,100.00
2022-10-10T22:38:26.303Z,100.00
2022-10-10T22:41:13.516Z,100.00
2022-10-10T22:43:59.893Z,100.00
2022-10-10T22:46:45.471Z,100.00
2022-10-10T22:49:31.967Z,100.00
2022-10-10T22:52:18.651Z,100.00
2022-10-10T22:55:05.391Z,100.00
2022-10-10T22:57:50.865Z,100.00
2022-10-10T23:00:36.414Z,100.00
2022-10-10T23:03:22.189Z,100.00
2022-10-10T23:06:08.490Z,100.00
2022-10-10T23:08:54.018Z,100.00
2022-10-10T23:11:39.514Z,100.00
2022-10-10T23:14:25.033Z,100.00
2022-10-10T23:17:10.229Z,100.00
2022-10-10T23:19:55.726Z,100.00
2022-10-10T23:22:41.193Z,100.00
2022-10-10T23:25:27.043Z,100.00
2022-10-10T23:28:13.716Z,100.00
2022-10-10T23:31:04.904Z,100.00
2022-10-10T23:33:50.456Z,100.00
2022-10-10T23:36:35.811Z,100.00
2022-10-10T23:39:21.233Z,100.00
2022-10-10T23:42:06.539Z,100.00
2022-10-10T23:44:51.803Z,100.00
2022-10-10T23:47:37.081Z,100.00
2022-10-10T23:50:22.600Z,100.00
2022-10-10T23:53:08.154Z,100.00
2022-10-10T23:55:54.025Z,100.00
2022-10-10T23:58:39.486Z,100.00
